createdAt,value
2024-02-20T00:05:23.837Z,10.64
2024-02-20T00:10:30.312Z,10.66
2024-02-20T00:15:33.006Z,10.62
2024-02-20T00:20:39.183Z,10.57
2024-02-20T00:25:45.191Z,10.46
2024-02-20T00:30:48.138Z,10.52
2024-02-20T00:35:52.150Z,10.49
2024-02-20T00:40:56.241Z,10.20
2024-02-20T00:46:01.348Z,10.59
2024-02-20T00:51:05.808Z,10.35
2024-02-20T00:57:07.918Z,10.34
2024-02-20T01:02:12.677Z,10.29
2024-02-20T01:07:17.398Z,10.31
2024-02-20T01:12:20.133Z,9.79
2024-02-20T01:17:23.546Z,10.22
2024-02-20T01:22:27.813Z,9.88
2024-02-20T01:27:30.575Z,9.71
2024-02-20T01:32:33.461Z,10.27
2024-02-20T01:37:37.642Z,10.25
2024-02-20T01:42:40.597Z,10.17
2024-02-20T01:47:43.800Z,10.39
2024-02-20T01:52:48.928Z,10.01
2024-02-20T01:57:51.621Z,10.30
2024-02-20T02:02:54.468Z,10.37
2024-02-20T02:08:00.251Z,10.32
2024-02-20T02:13:03.614Z,10.12
2024-02-20T02:18:07.778Z,10.39
2024-02-20T02:23:12.515Z,10.20
2024-02-20T02:28:16.868Z,10.33
2024-02-20T02:33:19.773Z,9.82
2024-02-20T02:38:24.994Z,10.16
2024-02-20T02:43:29.164Z,9.45
2024-02-20T02:48:31.956Z,10.32
2024-02-20T02:53:34.636Z,9.78
2024-02-20T02:58:39.168Z,10.10
2024-02-20T03:03:41.929Z,10.35
2024-02-20T03:08:46.348Z,10.14
2024-02-20T03:13:50.840Z,9.80
2024-02-20T03:18:54.618Z,10.04
2024-02-20T03:23:57.346Z,10.28
2024-02-20T03:29:01.532Z,10.33
2024-02-20T03:34:04.876Z,10.28
2024-02-20T03:39:08.302Z,10.24
2024-02-20T03:44:12.324Z,10.26
2024-02-20T03:49:15.812Z,10.33
2024-02-20T03:54:18.697Z,10.28
2024-02-20T03:59:23.124Z,9.77
2024-02-20T04:04:25.884Z,10.32
2024-02-20T04:09:28.672Z,10.28
2024-02-20T04:14:32.783Z,10.10
2024-02-20T04:19:36.832Z,10.17
2024-02-20T04:24:39.688Z,10.29
2024-02-20T04:29:44.517Z,9.59
2024-02-20T04:34:47.697Z,9.50
2024-02-20T04:39:50.562Z,10.23
2024-02-20T04:44:54.988Z,9.94
2024-02-20T04:49:57.895Z,9.97
2024-02-20T04:55:01.014Z,9.85
2024-02-20T05:00:11.535Z,9.80
2024-02-20T05:05:15.887Z,9.72
2024-02-20T05:10:19.003Z,9.69
2024-02-20T05:15:23.488Z,9.98
2024-02-20T05:20:26.456Z,10.08
2024-02-20T05:25:29.435Z,9.62
2024-02-20T05:30:33.747Z,9.83
2024-02-20T05:35:37.078Z,9.95
2024-02-20T05:40:40.090Z,9.80
2024-02-20T05:45:45.523Z,9.92
2024-02-20T05:50:48.292Z,9.76
2024-02-20T05:55:51.514Z,9.88
2024-02-20T06:00:55.578Z,9.74
2024-02-20T06:05:58.311Z,9.96
2024-02-20T06:11:01.142Z,9.27
2024-02-20T06:16:05.961Z,8.63
2024-02-20T06:21:10.700Z,8.35
2024-02-20T06:26:15.837Z,9.30
2024-02-20T06:31:20.263Z,9.52
2024-02-20T06:36:22.930Z,9.37
2024-02-20T06:41:25.624Z,9.58
2024-02-20T06:46:30.100Z,9.81
2024-02-20T06:51:35.388Z,9.77
2024-02-20T06:56:38.765Z,9.43
2024-02-20T07:01:42.841Z,9.48
2024-02-20T07:06:45.720Z,9.52
2024-02-20T07:11:48.576Z,9.49
2024-02-20T07:16:52.733Z,9.65
2024-02-20T07:21:55.452Z,9.82
2024-02-20T07:26:58.462Z,9.75
2024-02-20T07:32:03.599Z,9.66
2024-02-20T07:37:06.567Z,9.69
2024-02-20T07:42:09.516Z,9.76
2024-02-20T07:47:13.637Z,9.94
2024-02-20T07:52:16.414Z,9.84
2024-02-20T07:57:19.124Z,9.91
2024-02-20T08:02:23.249Z,9.85
2024-02-20T08:07:26.669Z,10.01
2024-02-20T08:12:29.335Z,9.46
2024-02-20T08:17:33.756Z,9.74
2024-02-20T08:22:36.401Z,9.93
2024-02-20T08:27:39.150Z,10.01
2024-02-20T08:32:45.400Z,10.01
2024-02-20T08:37:48.353Z,9.82
2024-02-20T08:42:51.014Z,9.93
2024-02-20T08:47:55.940Z,9.99
2024-02-20T08:53:01.172Z,10.33
2024-02-20T08:58:05.132Z,10.41
2024-02-20T09:03:10.890Z,10.16
2024-02-20T09:08:14.026Z,10.70
2024-02-20T09:13:18.331Z,10.67
2024-02-20T09:18:23.294Z,10.81
2024-02-20T09:23:26.077Z,10.40
2024-02-20T09:28:29.177Z,10.59
2024-02-20T09:33:33.394Z,11.06
2024-02-20T09:38:36.325Z,10.55
2024-02-20T09:43:40.750Z,10.51
2024-02-20T09:48:45.533Z,10.45
2024-02-20T09:53:50.077Z,10.84
2024-02-20T09:58:55.387Z,10.75
2024-02-20T10:04:05.126Z,10.84
2024-02-20T10:09:09.812Z,10.85
2024-02-20T10:14:12.492Z,10.99
2024-02-20T10:19:20.884Z,10.80
2024-02-20T10:24:31.772Z,11.06
2024-02-20T10:29:37.639Z,11.25
2024-02-20T10:34:41.698Z,11.33
2024-02-20T10:39:44.693Z,11.19
2024-02-20T10:44:49.881Z,11.66
2024-02-20T10:49:56.386Z,11.47
2024-02-20T10:55:13.485Z,11.25
2024-02-20T11:00:22.659Z,11.41
2024-02-20T11:05:27.944Z,11.68
2024-02-20T11:10:30.696Z,11.74
2024-02-20T11:15:33.705Z,11.70
2024-02-20T11:20:38.953Z,11.43
2024-02-20T11:25:42.563Z,11.70
2024-02-20T11:30:46.877Z,11.60
2024-02-20T11:35:53.562Z,11.70
2024-02-20T11:40:57.775Z,11.69
2024-02-20T11:46:00.998Z,11.82
2024-02-20T11:51:06.365Z,11.83
2024-02-20T11:56:09.463Z,11.38
2024-02-20T12:01:12.329Z,12.26
2024-02-20T12:06:16.486Z,11.67
2024-02-20T12:11:22.074Z,11.65
2024-02-20T12:16:28.634Z,11.55
2024-02-20T12:21:33.967Z,12.28
2024-02-20T12:26:36.903Z,11.86
2024-02-20T12:31:40.155Z,12.14
2024-02-20T12:36:46.124Z,11.97
2024-02-20T12:41:48.966Z,12.38
2024-02-20T12:46:52.066Z,12.32
2024-02-20T12:51:56.241Z,12.63
2024-02-20T12:57:00.242Z,12.59
2024-02-20T13:02:06.274Z,12.66
2024-02-20T13:07:10.805Z,12.88
2024-02-20T13:12:16.713Z,12.90
2024-02-20T13:17:19.422Z,12.81
2024-02-20T13:22:23.945Z,13.03
2024-02-20T13:27:26.754Z,12.59
2024-02-20T13:32:29.431Z,12.39
2024-02-20T13:37:33.485Z,12.97
2024-02-20T13:42:36.514Z,13.33
2024-02-20T13:47:39.441Z,13.16
2024-02-20T13:52:43.685Z,13.14
2024-02-20T13:57:47.453Z,13.12
2024-02-20T14:02:50.100Z,13.11
2024-02-20T14:07:54.409Z,13.00
2024-02-20T14:12:58.200Z,12.74
2024-02-20T14:18:01.123Z,12.75
2024-02-20T14:23:06.215Z,12.03
2024-02-20T14:28:08.981Z,13.14
2024-02-20T14:33:11.905Z,13.39
2024-02-20T14:38:16.576Z,13.13
2024-02-20T14:43:25.878Z,13.31
2024-02-20T14:48:32.573Z,13.29
2024-02-20T14:53:36.920Z,12.83
2024-02-20T14:58:39.632Z,12.79
2024-02-20T15:03:44.150Z,13.21
2024-02-20T15:08:48.645Z,12.93
2024-02-20T15:13:55.556Z,13.51
2024-02-20T15:18:59.378Z,13.07
2024-02-20T15:24:04.584Z,13.21
2024-02-20T15:29:07.801Z,13.43
2024-02-20T15:34:11.136Z,13.39
2024-02-20T15:39:15.404Z,13.15
2024-02-20T15:44:18.100Z,13.22
2024-02-20T15:49:25.441Z,12.37
2024-02-20T15:54:33.178Z,12.90
2024-02-20T15:59:36.802Z,13.03
2024-02-20T16:04:39.853Z,13.13
2024-02-20T16:09:44.091Z,12.96
2024-02-20T16:14:52.043Z,12.50
2024-02-20T16:19:55.593Z,12.36
2024-02-20T16:24:59.928Z,12.32
2024-02-20T16:30:03.712Z,12.57
2024-02-20T16:35:07.737Z,12.25
2024-02-20T16:40:13.976Z,12.38
2024-02-20T16:45:17.491Z,12.82
2024-02-20T16:50:20.308Z,12.43
2024-02-20T16:55:25.304Z,12.25
2024-02-20T17:00:29.383Z,12.41
2024-02-20T17:05:32.816Z,11.91
2024-02-20T17:10:37.901Z,11.67
2024-02-20T17:15:40.703Z,12.17
2024-02-20T17:20:44.390Z,11.90
2024-02-20T17:25:49.021Z,11.74
2024-02-20T17:30:51.825Z,12.17
2024-02-20T17:35:57.518Z,12.06
2024-02-20T17:41:29.536Z,11.11
2024-02-20T17:46:33.139Z,12.13
2024-02-20T17:51:37.290Z,11.91
2024-02-20T17:56:41.849Z,11.28
2024-02-20T18:01:45.267Z,12.00
2024-02-20T18:07:05.049Z,11.84
2024-02-20T18:12:13.103Z,11.61
2024-02-20T18:17:15.794Z,12.03
2024-02-20T18:22:18.580Z,12.14
2024-02-20T18:27:23.267Z,12.09
2024-02-20T18:32:26.844Z,10.72
2024-02-20T18:37:29.622Z,11.03
2024-02-20T18:42:33.820Z,11.84
2024-02-20T18:47:37.775Z,11.21
2024-02-20T18:52:40.815Z,11.19
2024-02-20T18:57:44.956Z,11.13
2024-02-20T19:02:47.907Z,11.36
2024-02-20T19:07:51.907Z,11.69
2024-02-20T19:12:57.354Z,11.41
2024-02-20T19:18:02.681Z,11.49
2024-02-20T19:23:05.700Z,11.27
2024-02-20T19:28:09.897Z,11.74
2024-02-20T19:33:13.468Z,11.89
2024-02-20T19:38:19.048Z,11.28
2024-02-20T19:43:23.192Z,12.10
2024-02-20T19:48:26.730Z,11.86
2024-02-20T19:53:33.463Z,11.81
2024-02-20T19:58:38.179Z,11.70
2024-02-20T20:03:43.018Z,11.58
2024-02-20T20:08:46.392Z,11.74
2024-02-20T20:13:50.616Z,11.34
2024-02-20T20:18:53.456Z,11.49
2024-02-20T20:24:07.161Z,10.57
2024-02-20T20:29:18.433Z,11.53
2024-02-20T20:34:21.287Z,11.10
2024-02-20T20:39:26.719Z,11.06
2024-02-20T20:44:31.005Z,11.38
2024-02-20T20:49:34.237Z,11.08
2024-02-20T20:54:37.864Z,11.15
2024-02-20T20:59:41.893Z,11.43
2024-02-20T21:04:49.012Z,11.27
2024-02-20T21:09:51.734Z,11.07
2024-02-20T21:14:57.003Z,11.37
2024-02-20T21:19:59.701Z,10.87
2024-02-20T21:25:05.382Z,11.28
2024-02-20T21:30:11.160Z,11.18
2024-02-20T21:35:14.125Z,10.90
2024-02-20T21:40:17.458Z,11.45
2024-02-20T21:45:22.208Z,11.58
2024-02-20T21:50:25.194Z,11.27
2024-02-20T21:55:30.189Z,9.71
2024-02-20T22:00:39.296Z,11.49
2024-02-20T22:05:45.432Z,11.26
2024-02-20T22:10:48.494Z,10.78
2024-02-20T22:15:56.177Z,11.47
2024-02-20T22:20:59.987Z,10.88
2024-02-20T22:26:05.769Z,11.66
2024-02-20T22:31:10.007Z,11.72
2024-02-20T22:36:16.136Z,11.20
2024-02-20T22:41:19.214Z,11.47
2024-02-20T22:46:23.732Z,11.39
2024-02-20T22:51:26.897Z,11.27
2024-02-20T22:56:30.889Z,11.57
2024-02-20T23:01:35.688Z,11.37
2024-02-20T23:06:41.803Z,11.34
2024-02-20T23:11:45.484Z,11.46
2024-02-20T23:16:50.377Z,11.64
2024-02-20T23:21:53.699Z,11.73
2024-02-20T23:26:56.578Z,11.82
2024-02-20T23:32:00.598Z,11.77
2024-02-20T23:37:03.325Z,11.83
2024-02-20T23:42:08.021Z,11.12
2024-02-20T23:47:12.320Z,11.72
2024-02-20T23:52:14.933Z,10.75
2024-02-20T23:57:17.660Z,11.59
